createdAt,value
2022-11-29T00:01:34.600Z,96227.84
2022-11-29T00:04:02.328Z,96230.09
2022-11-29T00:06:31.649Z,96228.91
2022-11-29T00:09:01.203Z,96228.16
2022-11-29T00:11:49.629Z,96233.84
2022-11-29T00:14:19.528Z,96231.88
2022-11-29T00:16:55.501Z,96231.88
2022-11-29T00:19:22.956Z,96231.16
2022-11-29T00:21:50.044Z,96235.78
2022-11-29T00:24:17.906Z,96235.31
2022-11-29T00:26:44.929Z,96232.63
2022-11-29T00:29:13.322Z,96238.00
2022-11-29T00:31:41.243Z,96231.88
2022-11-29T00:34:08.467Z,96241.19
2022-11-29T00:36:36.014Z,96239.69
2022-11-29T00:39:05.155Z,96226.97
2022-11-29T00:41:32.687Z,96234.28
2022-11-29T00:43:59.830Z,96234.28
2022-11-29T00:46:27.366Z,96239.69
2022-11-29T00:48:54.372Z,96231.59
2022-11-29T00:51:21.444Z,96237.44
2022-11-29T00:53:51.051Z,96243.13
2022-11-29T00:56:18.368Z,96243.41
2022-11-29T00:58:45.519Z,96244.91
2022-11-29T01:01:12.520Z,96240.13
2022-11-29T01:03:39.749Z,96247.03
2022-11-29T01:06:12.961Z,96240.44
2022-11-29T01:08:40.711Z,96243.56
2022-11-29T01:11:12.492Z,96250.91
2022-11-29T01:13:40.423Z,96245.53
2022-11-29T01:16:08.281Z,96244.78
2022-11-29T01:18:36.767Z,96247.47
2022-11-29T01:21:08.887Z,96248.22
2022-11-29T01:23:37.256Z,96250.91
2022-11-29T01:26:10.527Z,96246.72
2022-11-29T01:28:38.662Z,96259.00
2022-11-29T01:31:08.048Z,96253.59
2022-11-29T01:33:36.048Z,96246.72
2022-11-29T01:36:03.241Z,96257.50
2022-11-29T01:38:30.582Z,96257.06
2022-11-29T01:40:59.848Z,96252.84
2022-11-29T01:43:27.509Z,96266.34
2022-11-29T01:45:55.103Z,96262.88
2022-11-29T01:48:33.125Z,96269.03
2022-11-29T01:51:01.545Z,96263.63
2022-11-29T01:53:29.069Z,96264.38
2022-11-29T01:56:04.431Z,96267.84
2022-11-29T01:58:33.293Z,96264.69
2022-11-29T02:01:01.379Z,96273.22
2022-11-29T02:03:28.586Z,96263.19
2022-11-29T02:05:56.036Z,96264.38
2022-11-29T02:08:43.026Z,96267.09
2022-11-29T02:11:20.017Z,96262.88
2022-11-29T02:14:15.319Z,96259.19
2022-11-29T02:17:16.230Z,96261.56
2022-11-29T02:20:07.299Z,96253.66
2022-11-29T02:23:15.610Z,96255.59
2022-11-29T02:25:57.752Z,96259.50
2022-11-29T02:28:56.055Z,96248.72
2022-11-29T02:31:34.899Z,96251.41
2022-11-29T02:34:28.730Z,96256.81
2022-11-29T02:37:08.596Z,96264.88
2022-11-29T02:40:15.868Z,96265.81
2022-11-29T02:42:56.412Z,96265.81
2022-11-29T02:45:38.758Z,96260.44
2022-11-29T02:48:30.709Z,96262.81
2022-11-29T02:51:09.876Z,96273.66
2022-11-29T02:53:40.037Z,96274.16
2022-11-29T02:56:23.710Z,96276.88
2022-11-29T02:59:03.827Z,96284.13
2022-11-29T03:01:56.160Z,96281.53
2022-11-29T03:04:38.621Z,96287.19
2022-11-29T03:07:28.228Z,96284.09
2022-11-29T03:10:07.307Z,96284.94
2022-11-29T03:12:42.108Z,96280.84
2022-11-29T03:15:27.676Z,96287.88
2022-11-29T03:18:02.170Z,96295.91
2022-11-29T03:20:59.744Z,96289.66
2022-11-29T03:23:49.855Z,96300.97
2022-11-29T03:26:52.369Z,96300.66
2022-11-29T03:29:48.151Z,96299.66
2022-11-29T03:32:22.510Z,96292.75
2022-11-29T03:35:13.867Z,96300.34
2022-11-29T03:38:08.809Z,96297.66
2022-11-29T03:40:48.349Z,96301.94
2022-11-29T03:43:28.024Z,96299.13
2022-11-29T03:46:11.365Z,96303.03
2022-11-29T03:48:47.508Z,96310.53
2022-11-29T03:51:22.129Z,96311.56
2022-11-29T03:53:56.844Z,96311.00
2022-11-29T03:56:37.254Z,96306.63
2022-11-29T03:59:29.632Z,96303.38
2022-11-29T04:02:26.770Z,96305.03
2022-11-29T04:05:14.739Z,96306.97
2022-11-29T04:08:01.177Z,96307.75
2022-11-29T04:10:34.328Z,96309.84
2022-11-29T04:13:31.156Z,96313.13
2022-11-29T04:16:03.096Z,96298.63
2022-11-29T04:19:01.747Z,96305.22
2022-11-29T04:21:43.896Z,96311.06
2022-11-29T04:24:28.759Z,96309.16
2022-11-29T04:27:07.788Z,96312.28
2022-11-29T04:29:56.610Z,96308.84
2022-11-29T04:32:26.539Z,96306.16
2022-11-29T04:34:59.811Z,96312.00
2022-11-29T04:37:32.576Z,96306.03
2022-11-29T04:40:21.156Z,96311.88
2022-11-29T04:43:09.304Z,96314.44
2022-11-29T04:45:56.219Z,96319.47
2022-11-29T04:48:38.888Z,96312.63
2022-11-29T04:51:14.948Z,96322.66
2022-11-29T04:53:51.419Z,96318.31
2022-11-29T04:56:42.949Z,96326.84
2022-11-29T04:59:21.618Z,96327.59
2022-11-29T05:01:58.871Z,96323.25
2022-11-29T05:04:38.485Z,96336.59
2022-11-29T05:07:18.945Z,96338.06
2022-11-29T05:10:02.744Z,96342.88
2022-11-29T05:12:40.640Z,96353.78
2022-11-29T05:15:16.952Z,96354.22
2022-11-29T05:17:50.196Z,96354.38
2022-11-29T05:20:36.064Z,96361.72
2022-11-29T05:23:24.198Z,96366.50
2022-11-29T05:26:02.982Z,96375.78
2022-11-29T05:29:07.779Z,96369.81
2022-11-29T05:32:05.915Z,96375.34
2022-11-29T05:35:04.980Z,96373.25
2022-11-29T05:37:54.233Z,96386.41
2022-11-29T05:40:51.938Z,96386.56
2022-11-29T05:43:34.582Z,96388.19
2022-11-29T05:46:07.789Z,96396.88
2022-11-29T05:49:12.066Z,96394.66
2022-11-29T05:52:03.709Z,96404.19
2022-11-29T05:54:43.189Z,96404.34
2022-11-29T05:57:27.200Z,96406.28
2022-11-29T05:59:56.950Z,96405.41
2022-11-29T06:02:26.954Z,96415.25
2022-11-29T06:05:13.713Z,96413.03
2022-11-29T06:07:54.319Z,96415.72
2022-11-29T06:10:26.455Z,96421.84
2022-11-29T06:13:04.334Z,96425.75
2022-11-29T06:16:28.804Z,96419.59
2022-11-29T06:19:26.499Z,96429.47
2022-11-29T06:22:22.106Z,96426.50
2022-11-29T06:25:01.677Z,96425.91
2022-11-29T06:27:48.467Z,96425.59
2022-11-29T06:30:20.863Z,96428.88
2022-11-29T06:32:54.570Z,96432.03
2022-11-29T06:35:33.055Z,96437.41
2022-11-29T06:38:06.930Z,96431.13
2022-11-29T06:40:34.265Z,96436.06
2022-11-29T06:43:01.579Z,96436.94
2022-11-29T06:45:28.973Z,96439.34
2022-11-29T06:48:02.592Z,96444.59
2022-11-29T06:50:33.909Z,96445.19
2022-11-29T06:53:06.938Z,96451.59
2022-11-29T06:55:47.678Z,96453.84
2022-11-29T06:58:31.483Z,96447.56
2022-11-29T07:01:01.655Z,96452.19
2022-11-29T07:03:46.731Z,96461.34
2022-11-29T07:06:23.274Z,96456.22
2022-11-29T07:09:01.665Z,96459.25
2022-11-29T07:11:29.211Z,96457.28
2022-11-29T07:13:57.040Z,96460.00
2022-11-29T07:16:31.714Z,96464.94
2022-11-29T07:19:39.214Z,96468.50
2022-11-29T07:22:41.084Z,96470.75
2022-11-29T07:25:29.419Z,96467.47
2022-11-29T07:28:17.118Z,96475.69
2022-11-29T07:31:00.617Z,96466.41
2022-11-29T07:34:15.892Z,96473.72
2022-11-29T07:37:06.136Z,96478.41
2022-11-29T07:39:49.996Z,96487.66
2022-11-29T07:42:29.329Z,96484.22
2022-11-29T07:45:17.679Z,96483.03
2022-11-29T07:47:44.751Z,96491.09
2022-11-29T07:50:14.152Z,96492.88
2022-11-29T07:52:41.470Z,96493.63
2022-11-29T07:55:18.479Z,96491.69
2022-11-29T07:57:46.418Z,96498.28
2022-11-29T08:00:14.383Z,96501.28
2022-11-29T08:02:42.249Z,96500.97
2022-11-29T08:05:09.958Z,96505.16
2022-11-29T08:07:38.677Z,96511.28
2022-11-29T08:10:08.457Z,96509.34
2022-11-29T08:12:35.556Z,96513.09
2022-11-29T08:15:02.943Z,96519.22
2022-11-29T08:17:30.015Z,96515.34
2022-11-29T08:20:00.023Z,96522.66
2022-11-29T08:22:31.206Z,96524.59
2022-11-29T08:25:00.036Z,96524.16
2022-11-29T08:27:27.274Z,96525.34
2022-11-29T08:29:54.314Z,96524.91
2022-11-29T08:32:22.393Z,96531.66
2022-11-29T08:34:49.379Z,96530.47
2022-11-29T08:37:16.454Z,96531.94
2022-11-29T08:39:44.254Z,96537.63
2022-11-29T08:42:11.663Z,96535.69
2022-11-29T08:44:38.749Z,96537.19
2022-11-29T08:47:24.540Z,96546.31
2022-11-29T08:50:03.896Z,96547.81
2022-11-29T08:52:52.997Z,96548.56
2022-11-29T08:55:22.224Z,96552.31
2022-11-29T08:57:50.562Z,96552.31
2022-11-29T09:00:19.358Z,96559.19
2022-11-29T09:02:46.631Z,96555.00
2022-11-29T09:05:15.321Z,96564.56
2022-11-29T09:07:43.137Z,96566.06
2022-11-29T09:10:11.574Z,96571.00
2022-11-29T09:12:40.419Z,96566.38
2022-11-29T09:15:10.297Z,96572.94
2022-11-29T09:17:37.578Z,96567.13
2022-11-29T09:20:08.186Z,96574.75
2022-11-29T09:22:35.434Z,96575.81
2022-11-29T09:25:03.069Z,96579.53
2022-11-29T09:27:31.325Z,96576.09
2022-11-29T09:29:58.792Z,96581.19
2022-11-29T09:32:26.077Z,96580.31
2022-11-29T09:34:53.352Z,96584.34
2022-11-29T09:37:20.479Z,96587.66
2022-11-29T09:39:49.202Z,96594.53
2022-11-29T09:42:35.165Z,96602.03
2022-11-29T09:45:14.853Z,96604.13
2022-11-29T09:48:05.304Z,96608.31
2022-11-29T09:50:37.725Z,96609.19
2022-11-29T09:53:24.069Z,96602.03
2022-11-29T09:55:59.570Z,96606.50
2022-11-29T09:58:40.770Z,96606.34
2022-11-29T10:01:13.223Z,96605.16
2022-11-29T10:03:45.059Z,96616.69
2022-11-29T10:06:33.008Z,96612.19
2022-11-29T10:09:15.816Z,96615.81
2022-11-29T10:12:39.355Z,96608.75
2022-11-29T10:15:19.205Z,96620.59
2022-11-29T10:17:51.968Z,96615.19
2022-11-29T10:20:22.978Z,96610.13
2022-11-29T10:23:04.126Z,96612.38
2022-11-29T10:25:37.822Z,96615.38
2022-11-29T10:28:09.528Z,96611.94
2022-11-29T10:30:36.846Z,96611.59
2022-11-29T10:33:13.019Z,96612.53
2022-11-29T10:35:40.160Z,96611.47
2022-11-29T10:38:29.820Z,96610.28
2022-11-29T10:41:02.096Z,96615.22
2022-11-29T10:43:29.259Z,96606.97
2022-11-29T10:45:58.976Z,96618.50
2022-11-29T10:48:33.835Z,96605.94
2022-11-29T10:51:01.687Z,96614.63
2022-11-29T10:53:36.152Z,96615.22
2022-11-29T10:56:19.508Z,96600.53
2022-11-29T10:59:09.572Z,96612.66
2022-11-29T11:01:41.183Z,96612.22
2022-11-29T11:04:15.934Z,96613.72
2022-11-29T11:06:56.945Z,96618.34
2022-11-29T11:09:47.359Z,96612.50
2022-11-29T11:12:20.689Z,96615.94
2022-11-29T11:14:49.275Z,96611.78
2022-11-29T11:17:21.295Z,96614.31
2022-11-29T11:20:06.667Z,96619.41
2022-11-29T11:22:35.538Z,96626.81
2022-11-29T11:25:31.040Z,96624.56
2022-11-29T11:28:13.864Z,96619.34
2022-11-29T11:30:49.252Z,96608.59
2022-11-29T11:33:19.996Z,96612.66
2022-11-29T11:36:08.455Z,96604.16
2022-11-29T11:38:53.309Z,96612.81
2022-11-29T11:41:48.865Z,96611.16
2022-11-29T11:44:58.329Z,96608.88
2022-11-29T11:47:28.814Z,96594.97
2022-11-29T11:50:04.407Z,96594.53
2022-11-29T11:52:40.222Z,96596.97
2022-11-29T11:55:21.679Z,96596.03
2022-11-29T11:58:16.312Z,96587.38
2022-11-29T12:01:06.228Z,96591.72
2022-11-29T12:03:48.497Z,96586.78
2022-11-29T12:06:50.001Z,96586.31
2022-11-29T12:09:25.603Z,96584.09
2022-11-29T12:12:15.290Z,96579.72
2022-11-29T12:15:22.588Z,96583.41
2022-11-29T12:18:04.610Z,96575.75
2022-11-29T12:20:42.880Z,96576.97
2022-11-29T12:23:13.168Z,96569.91
2022-11-29T12:25:56.599Z,96568.09
2022-11-29T12:28:29.853Z,96568.09
2022-11-29T12:30:57.090Z,96562.56
2022-11-29T12:33:30.291Z,96559.03
2022-11-29T12:35:57.282Z,96556.63
2022-11-29T12:38:48.380Z,96557.84
2022-11-29T12:41:16.468Z,96556.91
2022-11-29T12:43:50.966Z,96555.44
2022-11-29T12:46:26.248Z,96552.25
2022-11-29T12:48:56.530Z,96551.25
2022-11-29T12:51:31.393Z,96551.81
2022-11-29T12:54:43.191Z,96552.75
2022-11-29T12:57:19.367Z,96537.38
2022-11-29T13:00:13.349Z,96534.97
2022-11-29T13:03:18.178Z,96541.56
2022-11-29T13:06:07.949Z,96538.41
2022-11-29T13:08:47.990Z,96538.88
2022-11-29T13:11:26.075Z,96542.88
2022-11-29T13:14:42.514Z,96536.56
2022-11-29T13:17:38.012Z,96535.06
2022-11-29T13:20:18.003Z,96532.66
2022-11-29T13:23:39.110Z,96541.50
2022-11-29T13:26:13.046Z,96542.84
2022-11-29T13:28:43.242Z,96531.28
2022-11-29T13:31:23.666Z,96532.75
2022-11-29T13:34:06.134Z,96527.88
2022-11-29T13:37:07.672Z,96519.00
2022-11-29T13:40:26.010Z,96514.06
2022-11-29T13:43:18.106Z,96519.00
2022-11-29T13:46:01.550Z,96521.69
2022-11-29T13:48:29.650Z,96518.44
2022-11-29T13:50:57.959Z,96520.59
2022-11-29T13:53:31.748Z,96524.03
2022-11-29T13:56:01.556Z,96524.31
2022-11-29T13:58:29.487Z,96522.34
2022-11-29T14:01:05.954Z,96524.59
2022-11-29T14:03:42.760Z,96520.78
2022-11-29T14:06:31.560Z,96516.75
2022-11-29T14:09:20.171Z,96519.34
2022-11-29T14:11:50.291Z,96519.25
2022-11-29T14:14:17.488Z,96516.09
2022-11-29T14:16:44.666Z,96517.28
2022-11-29T14:19:33.042Z,96520.59
2022-11-29T14:22:03.592Z,96523.94
2022-11-29T14:24:34.840Z,96521.16
2022-11-29T14:27:19.985Z,96519.09
2022-11-29T14:29:50.021Z,96519.53
2022-11-29T14:32:44.406Z,96524.75
2022-11-29T14:35:13.195Z,96510.97
2022-11-29T14:38:11.600Z,96524.66
2022-11-29T14:40:41.745Z,96526.78
2022-11-29T14:43:38.847Z,96520.38
2022-11-29T14:46:15.004Z,96524.44
2022-11-29T14:48:47.319Z,96524.72
2022-11-29T14:51:19.751Z,96522.66
2022-11-29T14:53:51.510Z,96526.84
2022-11-29T14:56:42.494Z,96526.09
2022-11-29T14:59:46.961Z,96523.84
2022-11-29T15:02:44.969Z,96524.59
2022-11-29T15:05:18.763Z,96528.50
2022-11-29T15:07:57.527Z,96529.91
2022-11-29T15:10:29.950Z,96527.94
2022-11-29T15:12:59.835Z,96535.41
2022-11-29T15:15:38.997Z,96535.47
2022-11-29T15:18:39.284Z,96542.09
2022-11-29T15:21:06.608Z,96538.38
2022-11-29T15:23:44.233Z,96542.19
2022-11-29T15:26:20.451Z,96551.06
2022-11-29T15:28:47.713Z,96546.97
2022-11-29T15:31:19.310Z,96544.00
2022-11-29T15:33:50.842Z,96543.59
2022-11-29T15:36:24.413Z,96534.28
2022-11-29T15:38:54.601Z,96553.63
2022-11-29T15:41:34.770Z,96546.84
2022-11-29T15:44:07.133Z,96556.00
2022-11-29T15:46:35.909Z,96546.75
2022-11-29T15:49:38.416Z,96547.84
2022-11-29T15:52:15.509Z,96559.72
2022-11-29T15:55:02.767Z,96552.09
2022-11-29T15:57:41.999Z,96557.78
2022-11-29T16:00:16.384Z,96567.53
2022-11-29T16:03:01.880Z,96563.94
2022-11-29T16:05:39.418Z,96569.34
2022-11-29T16:08:19.722Z,96566.63
2022-11-29T16:10:50.689Z,96565.88
2022-11-29T16:13:37.901Z,96571.28
2022-11-29T16:16:13.637Z,96565.13
2022-11-29T16:18:42.806Z,96563.94
2022-11-29T16:21:24.680Z,96565.13
2022-11-29T16:23:52.182Z,96552.19
2022-11-29T16:26:30.157Z,96555.88
2022-11-29T16:29:00.018Z,96563.38
2022-11-29T16:31:38.032Z,96571.06
2022-11-29T16:34:10.548Z,96578.22
2022-11-29T16:36:37.768Z,96582.13
2022-11-29T16:39:08.367Z,96583.63
2022-11-29T16:41:38.928Z,96582.88
2022-11-29T16:44:27.220Z,96599.06
2022-11-29T16:47:11.958Z,96593.66
2022-11-29T16:49:39.133Z,96593.81
2022-11-29T16:52:24.951Z,96595.63
2022-11-29T16:55:03.418Z,96605.94
2022-11-29T16:57:32.199Z,96594.41
2022-11-29T16:59:59.634Z,96588.84
2022-11-29T17:02:30.104Z,96590.00
2022-11-29T17:04:58.318Z,96600.81
2022-11-29T17:07:35.987Z,96596.59
2022-11-29T17:10:12.090Z,96607.34
2022-11-29T17:12:42.229Z,96606.13
2022-11-29T17:15:13.770Z,96607.66
2022-11-29T17:17:43.591Z,96611.81
2022-11-29T17:20:13.273Z,96607.03
2022-11-29T17:22:41.488Z,96604.34
2022-11-29T17:25:10.025Z,96601.94
2022-11-29T17:27:37.405Z,96615.44
2022-11-29T17:30:06.715Z,96605.38
2022-11-29T17:32:35.908Z,96616.19
2022-11-29T17:35:03.683Z,96609.44
2022-11-29T17:37:31.825Z,96616.22
2022-11-29T17:39:59.371Z,96608.41
2022-11-29T17:42:26.949Z,96609.00
2022-11-29T17:44:54.149Z,96609.00
2022-11-29T17:47:21.362Z,96611.56
2022-11-29T17:49:48.806Z,96611.28
2022-11-29T17:52:16.090Z,96611.28
2022-11-29T17:54:44.371Z,96613.06
2022-11-29T17:57:11.744Z,96603.34
2022-11-29T17:59:38.976Z,96607.13
2022-11-29T18:02:06.356Z,96611.00
2022-11-29T18:04:33.780Z,96617.28
2022-11-29T18:07:01.877Z,96608.31
2022-11-29T18:09:28.966Z,96607.44
2022-11-29T18:11:56.237Z,96613.56
2022-11-29T18:14:25.448Z,96617.16
2022-11-29T18:16:52.859Z,96620.78
2022-11-29T18:19:22.861Z,96628.25
2022-11-29T18:21:50.696Z,96623.88
2022-11-29T18:24:19.143Z,96630.16
2022-11-29T18:26:47.073Z,96618.03
2022-11-29T18:29:14.907Z,96611.09
2022-11-29T18:31:44.411Z,96617.81
2022-11-29T18:34:13.477Z,96626.03
2022-11-29T18:36:43.651Z,96625.72
2022-11-29T18:39:14.295Z,96629.75
2022-11-29T18:41:44.303Z,96634.25
2022-11-29T18:44:13.895Z,96631.25
2022-11-29T18:46:43.713Z,96637.22
2022-11-29T18:49:13.834Z,96640.34
2022-11-29T18:51:44.927Z,96641.97
2022-11-29T18:54:12.885Z,96645.84
2022-11-29T18:56:40.913Z,96650.63
2022-11-29T18:59:11.102Z,96653.91
2022-11-29T19:01:43.780Z,96647.91
2022-11-29T19:04:14.832Z,96651.59
2022-11-29T19:06:42.774Z,96655.19
2022-11-29T19:09:16.141Z,96654.88
2022-11-29T19:11:43.347Z,96665.03
2022-11-29T19:14:12.778Z,96658.56
2022-11-29T19:16:45.773Z,96656.78
2022-11-29T19:19:13.045Z,96659.41
2022-11-29T19:21:41.011Z,96659.09
2022-11-29T19:24:14.327Z,96663.53
2022-11-29T19:26:44.857Z,96664.75
2022-11-29T19:29:14.007Z,96662.94
2022-11-29T19:31:42.716Z,96660.38
2022-11-29T19:34:10.269Z,96658.56
2022-11-29T19:36:43.627Z,96654.81
2022-11-29T19:39:13.652Z,96661.38
2022-11-29T19:41:44.259Z,96664.19
2022-11-29T19:44:12.135Z,96670.75
2022-11-29T19:46:45.963Z,96670.00
2022-11-29T19:49:13.251Z,96664.63
2022-11-29T19:51:40.444Z,96668.06
2022-11-29T19:54:09.060Z,96670.34
2022-11-29T19:56:36.664Z,96673.44
2022-11-29T19:59:03.993Z,96677.66
2022-11-29T20:01:39.660Z,96678.06
2022-11-29T20:04:09.177Z,96686.47
2022-11-29T20:06:36.843Z,96678.06
2022-11-29T20:09:07.886Z,96674.34
2022-11-29T20:11:36.418Z,96679.72
2022-11-29T20:14:05.600Z,96686.56
2022-11-29T20:16:33.918Z,96680.91
2022-11-29T20:19:01.983Z,96680.44
2022-11-29T20:21:32.697Z,96681.66
2022-11-29T20:24:09.737Z,96685.53
2022-11-29T20:26:38.759Z,96692.84
2022-11-29T20:29:08.505Z,96692.84
2022-11-29T20:31:38.012Z,96698.97
2022-11-29T20:34:06.689Z,96700.16
2022-11-29T20:36:49.836Z,96697.47
2022-11-29T20:39:45.040Z,96707.47
2022-11-29T20:42:44.595Z,96705.94
2022-11-29T20:45:14.290Z,96713.25
2022-11-29T20:47:47.465Z,96711.47
2022-11-29T20:50:22.947Z,96719.19
2022-11-29T20:53:07.379Z,96711.59
2022-11-29T20:55:37.977Z,96715.13
2022-11-29T20:58:06.537Z,96716.78
2022-11-29T21:00:34.707Z,96716.44
2022-11-29T21:03:02.216Z,96713.00
2022-11-29T21:05:29.615Z,96721.94
2022-11-29T21:07:56.888Z,96720.44
2022-11-29T21:10:24.332Z,96719.69
2022-11-29T21:12:51.903Z,96722.03
2022-11-29T21:15:19.648Z,96720.56
2022-11-29T21:17:47.327Z,96724.44
2022-11-29T21:20:20.988Z,96719.81
2022-11-29T21:23:01.157Z,96720.66
2022-11-29T21:25:50.356Z,96715.28
2022-11-29T21:28:17.829Z,96716.94
2022-11-29T21:30:45.576Z,96720.38
2022-11-29T21:33:13.058Z,96718.09
2022-11-29T21:35:40.360Z,96721.97
2022-11-29T21:38:13.539Z,96721.22
2022-11-29T21:40:41.140Z,96718.53
2022-11-29T21:43:08.296Z,96717.78
2022-11-29T21:45:35.512Z,96721.97
2022-11-29T21:48:02.892Z,96716.16
2022-11-29T21:50:30.151Z,96723.34
2022-11-29T21:52:57.458Z,96719.91
2022-11-29T21:55:31.592Z,96719.47
2022-11-29T21:57:59.282Z,96724.84
2022-11-29T22:00:26.533Z,96723.25
2022-11-29T22:02:53.768Z,96723.44
2022-11-29T22:05:21.051Z,96726.25
2022-11-29T22:07:48.379Z,96717.44
2022-11-29T22:10:17.511Z,96725.06
2022-11-29T22:12:51.893Z,96726.88
2022-11-29T22:15:24.390Z,96731.38
2022-11-29T22:17:53.534Z,96737.53
2022-11-29T22:20:23.410Z,96733.19
2022-11-29T22:22:53.484Z,96732.34
2022-11-29T22:25:24.621Z,96739.94
2022-11-29T22:27:51.936Z,96740.41
2022-11-29T22:30:20.304Z,96742.34
2022-11-29T22:32:47.475Z,96740.06
2022-11-29T22:35:14.851Z,96748.47
2022-11-29T22:37:44.921Z,96751.16
2022-11-29T22:40:12.989Z,96753.38
2022-11-29T22:42:41.633Z,96749.53
2022-11-29T22:45:09.209Z,96753.72
2022-11-29T22:47:36.479Z,96752.84
2022-11-29T22:50:03.788Z,96753.59
2022-11-29T22:52:31.116Z,96755.53
2022-11-29T22:55:04.261Z,96757.03
2022-11-29T22:57:32.066Z,96751.66
2022-11-29T22:59:59.295Z,96761.22
2022-11-29T23:02:28.300Z,96761.56
2022-11-29T23:04:55.514Z,96761.84
2022-11-29T23:07:22.697Z,96759.63
2022-11-29T23:09:50.023Z,96761.44
2022-11-29T23:12:17.406Z,96757.97
2022-11-29T23:14:44.988Z,96757.22
2022-11-29T23:17:12.424Z,96761.44
2022-11-29T23:19:39.754Z,96755.63
2022-11-29T23:22:07.043Z,96763.22
2022-11-29T23:24:34.626Z,96765.06
2022-11-29T23:27:01.878Z,96768.94
2022-11-29T23:29:29.058Z,96774.66
2022-11-29T23:31:56.437Z,96770.75
2022-11-29T23:34:23.592Z,96776.13
2022-11-29T23:36:53.076Z,96776.13
2022-11-29T23:39:21.164Z,96775.41
2022-11-29T23:41:48.177Z,96766.13
2022-11-29T23:44:15.338Z,96765.38
2022-11-29T23:46:42.386Z,96773.75
2022-11-29T23:49:09.604Z,96778.38
2022-11-29T23:51:36.723Z,96774.94
2022-11-29T23:54:04.468Z,96767.19
2022-11-29T23:56:35.555Z,96770.31
2022-11-29T23:59:03.264Z,96772.91
